sensor_id;sensor_type;location;lat;lon;timestamp;pressure;altitude;pressure_sealevel;temperature;humidity
57628;BME280;43451;49.060;10.616;2022-09-09T00:01:01;96467.34;;;12.45;100.00
57628;BME280;43451;49.060;10.616;2022-09-09T00:03:43;96461.97;;;12.41;100.00
57628;BME280;43451;49.060;10.616;2022-09-09T00:06:14;96466.69;;;12.37;100.00
57628;BME280;43451;49.060;10.616;2022-09-09T00:11:18;96458.84;;;12.39;100.00
57628;BME280;43451;49.060;10.616;2022-09-09T00:13:48;96451.59;;;12.29;100.00
57628;BME280;43451;49.060;10.616;2022-09-09T00:16:17;96455.16;;;12.26;100.00
57628;BME280;43451;49.060;10.616;2022-09-09T00:24:32;96432.91;;;12.31;100.00
57628;BME280;43451;49.060;10.616;2022-09-09T00:27:05;96436.78;;;12.30;100.00
57628;BME280;43451;49.060;10.616;2022-09-09T00:29:45;96445.72;;;12.34;100.00
57628;BME280;43451;49.060;10.616;2022-09-09T00:32:16;96438.56;;;12.44;100.00
57628;BME280;43451;49.060;10.616;2022-09-09T00:34:52;96446.38;;;12.42;100.00
57628;BME280;43451;49.060;10.616;2022-09-09T00:37:20;96443.00;;;12.34;100.00
57628;BME280;43451;49.060;10.616;2022-09-09T00:39:47;96445.06;;;12.23;100.00
57628;BME280;43451;49.060;10.616;2022-09-09T00:42:24;96445.56;;;12.14;100.00
57628;BME280;43451;49.060;10.616;2022-09-09T00:50:03;96438.13;;;12.18;100.00
57628;BME280;43451;49.060;10.616;2022-09-09T00:52:35;96437.38;;;12.14;100.00
57628;BME280;43451;49.060;10.616;2022-09-09T00:57:40;96445.16;;;12.16;100.00
57628;BME280;43451;49.060;10.616;2022-09-09T01:00:28;96436.63;;;12.14;100.00
57628;BME280;43451;49.060;10.616;2022-09-09T01:11:43;96455.25;;;12.19;100.00
57628;BME280;43451;49.060;10.616;2022-09-09T01:16:54;96464.56;;;12.18;100.00
57628;BME280;43451;49.060;10.616;2022-09-09T01:19:41;96463.75;;;12.21;100.00
57628;BME280;43451;49.060;10.616;2022-09-09T01:22:13;96459.50;;;12.20;100.00
57628;BME280;43451;49.060;10.616;2022-09-09T01:27:40;96454.44;;;12.22;100.00
57628;BME280;43451;49.060;10.616;2022-09-09T01:30:14;96448.66;;;12.16;100.00
57628;BME280;43451;49.060;10.616;2022-09-09T01:32:43;96449.84;;;12.15;100.00
57628;BME280;43451;49.060;10.616;2022-09-09T01:35:26;96457.63;;;12.13;100.00
57628;BME280;43451;49.060;10.616;2022-09-09T01:37:55;96456.06;;;12.16;100.00
57628;BME280;43451;49.060;10.616;2022-09-09T01:40:21;96451.34;;;12.20;100.00
57628;BME280;43451;49.060;10.616;2022-09-09T01:42:46;96460.59;;;12.26;100.00
57628;BME280;43451;49.060;10.616;2022-09-09T01:45:12;96454.34;;;12.29;100.00
57628;BME280;43451;49.060;10.616;2022-09-09T01:47:37;96454.69;;;12.31;100.00
57628;BME280;43451;49.060;10.616;2022-09-09T01:50:03;96454.66;;;12.35;100.00
57628;BME280;43451;49.060;10.616;2022-09-09T01:52:30;96451.50;;;12.36;100.00
57628;BME280;43451;49.060;10.616;2022-09-09T01:54:57;96435.47;;;12.42;100.00
57628;BME280;43451;49.060;10.616;2022-09-09T01:57:27;96435.44;;;12.45;100.00
57628;BME280;43451;49.060;10.616;2022-09-09T02:00:03;96433.91;;;12.44;100.00
57628;BME280;43451;49.060;10.616;2022-09-09T02:03:00;96433.41;;;12.49;100.00
57628;BME280;43451;49.060;10.616;2022-09-09T02:05:35;96431.16;;;12.44;100.00
57628;BME280;43451;49.060;10.616;2022-09-09T02:08:09;96435.78;;;12.47;100.00
57628;BME280;43451;49.060;10.616;2022-09-09T02:10:48;96437.00;;;12.46;100.00
57628;BME280;43451;49.060;10.616;2022-09-09T02:13:20;96430.69;;;12.49;100.00
57628;BME280;43451;49.060;10.616;2022-09-09T02:15:56;96437.34;;;12.48;100.00
57628;BME280;43451;49.060;10.616;2022-09-09T02:18:30;96434.22;;;12.50;100.00
57628;BME280;43451;49.060;10.616;2022-09-09T02:20:59;96443.88;;;12.54;100.00
57628;BME280;43451;49.060;10.616;2022-09-09T02:23:24;96452.00;;;12.58;100.00
57628;BME280;43451;49.060;10.616;2022-09-09T02:25:51;96446.84;;;12.64;100.00
57628;BME280;43451;49.060;10.616;2022-09-09T02:28:20;96455.41;;;12.66;100.00
57628;BME280;43451;49.060;10.616;2022-09-09T02:30:49;96440.94;;;12.69;100.00
57628;BME280;43451;49.060;10.616;2022-09-09T02:33:24;96446.41;;;12.69;100.00
57628;BME280;43451;49.060;10.616;2022-09-09T02:35:51;96439.03;;;12.66;100.00
57628;BME280;43451;49.060;10.616;2022-09-09T02:38:19;96435.59;;;12.62;100.00
57628;BME280;43451;49.060;10.616;2022-09-09T02:40:46;96436.00;;;12.60;100.00
57628;BME280;43451;49.060;10.616;2022-09-09T02:43:14;96443.41;;;12.60;100.00
57628;BME280;43451;49.060;10.616;2022-09-09T02:45:50;96436.00;;;12.60;100.00
57628;BME280;43451;49.060;10.616;2022-09-09T02:48:23;96442.16;;;12.64;100.00
57628;BME280;43451;49.060;10.616;2022-09-09T02:51:12;96448.38;;;12.65;100.00
57628;BME280;43451;49.060;10.616;2022-09-09T02:56:21;96441.50;;;12.57;100.00
57628;BME280;43451;49.060;10.616;2022-09-09T02:58:49;96435.28;;;12.56;100.00
57628;BME280;43451;49.060;10.616;2022-09-09T03:01:17;96436.88;;;12.53;100.00
57628;BME280;43451;49.060;10.616;2022-09-09T03:03:43;96430.28;;;12.51;100.00
57628;BME280;43451;49.060;10.616;2022-09-09T03:06:09;96429.16;;;12.48;100.00
57628;BME280;43451;49.060;10.616;2022-09-09T03:08:37;96427.63;;;12.47;100.00
57628;BME280;43451;49.060;10.616;2022-09-09T03:11:02;96433.91;;;12.44;100.00
57628;BME280;43451;49.060;10.616;2022-09-09T03:13:28;96436.63;;;12.44;100.00
57628;BME280;43451;49.060;10.616;2022-09-09T03:15:54;96435.44;;;12.45;100.00
57628;BME280;43451;49.060;10.616;2022-09-09T03:18:19;96432.69;;;12.45;100.00
57628;BME280;43451;49.060;10.616;2022-09-09T03:20:46;96422.22;;;12.44;100.00
57628;BME280;43451;49.060;10.616;2022-09-09T03:23:13;96431.16;;;12.44;100.00
57628;BME280;43451;49.060;10.616;2022-09-09T03:25:39;96431.94;;;12.45;100.00
57628;BME280;43451;49.060;10.616;2022-09-09T03:28:05;96436.63;;;12.44;100.00
57628;BME280;43451;49.060;10.616;2022-09-09T03:30:30;96437.00;;;12.46;100.00
57628;BME280;43451;49.060;10.616;2022-09-09T03:32:56;96434.22;;;12.50;100.00
57628;BME280;43451;49.060;10.616;2022-09-09T03:35:22;96429.94;;;12.49;100.00
57628;BME280;43451;49.060;10.616;2022-09-09T03:37:48;96438.16;;;12.45;100.00
57628;BME280;43451;49.060;10.616;2022-09-09T03:40:13;96429.22;;;12.45;100.00
57628;BME280;43451;49.060;10.616;2022-09-09T03:42:39;96437.81;;;12.43;100.00
57628;BME280;43451;49.060;10.616;2022-09-09T03:45:07;96432.38;;;12.40;100.00
57628;BME280;43451;49.060;10.616;2022-09-09T03:47:34;96432.44;;;12.36;100.00
57628;BME280;43451;49.060;10.616;2022-09-09T03:50:00;96420.78;;;12.36;100.00
57628;BME280;43451;49.060;10.616;2022-09-09T03:52:25;96434.03;;;12.34;100.00
57628;BME280;43451;49.060;10.616;2022-09-09T03:54:52;96425.09;;;12.33;100.00
57628;BME280;43451;49.060;10.616;2022-09-09T03:57:18;96416.50;;;12.35;100.00
57628;BME280;43451;49.060;10.616;2022-09-09T03:59:44;96418.06;;;12.36;100.00
57628;BME280;43451;49.060;10.616;2022-09-09T04:02:10;96419.25;;;12.35;100.00
57628;BME280;43451;49.060;10.616;2022-09-09T04:04:35;96425.84;;;12.34;100.00
57628;BME280;43451;49.060;10.616;2022-09-09T04:07:01;96425.56;;;12.28;100.00
57628;BME280;43451;49.060;10.616;2022-09-09T04:09:26;96428.72;;;12.23;100.00
57628;BME280;43451;49.060;10.616;2022-09-09T04:11:52;96434.16;;;12.23;100.00
57628;BME280;43451;49.060;10.616;2022-09-09T04:14:18;96424.53;;;12.18;100.00
57628;BME280;43451;49.060;10.616;2022-09-09T04:16:44;96414.75;;;12.21;100.00
57628;BME280;43451;49.060;10.616;2022-09-09T04:19:10;96411.63;;;12.22;100.00
57628;BME280;43451;49.060;10.616;2022-09-09T04:21:38;96406.22;;;12.19;100.00
57628;BME280;43451;49.060;10.616;2022-09-09T04:24:05;96408.66;;;12.10;100.00
57628;BME280;43451;49.060;10.616;2022-09-09T04:26:31;96418.06;;;12.05;100.00
57628;BME280;43451;49.060;10.616;2022-09-09T04:28:56;96428.59;;;12.03;100.00
57628;BME280;43451;49.060;10.616;2022-09-09T04:31:22;96428.59;;;12.03;100.00
57628;BME280;43451;49.060;10.616;2022-09-09T04:33:51;96427.34;;;12.07;100.00
57628;BME280;43451;49.060;10.616;2022-09-09T04:36:17;96442.13;;;12.10;100.00
57628;BME280;43451;49.060;10.616;2022-09-09T04:38:45;96444.06;;;12.10;100.00
57628;BME280;43451;49.060;10.616;2022-09-09T04:41:11;96450.63;;;12.16;100.00
57628;BME280;43451;49.060;10.616;2022-09-09T04:43:38;96451.44;;;12.13;100.00
57628;BME280;43451;49.060;10.616;2022-09-09T04:46:04;96452.97;;;12.14;100.00
57628;BME280;43451;49.060;10.616;2022-09-09T04:48:30;96451.81;;;12.15;100.00
57628;BME280;43451;49.060;10.616;2022-09-09T04:50:57;96446.34;;;12.15;100.00
57628;BME280;43451;49.060;10.616;2022-09-09T04:53:23;96445.16;;;12.16;100.00
57628;BME280;43451;49.060;10.616;2022-09-09T04:55:49;96455.25;;;12.19;100.00
57628;BME280;43451;49.060;10.616;2022-09-09T04:58:14;96458.72;;;12.19;100.00
57628;BME280;43451;49.060;10.616;2022-09-09T05:00:40;96454.34;;;12.29;100.00
57628;BME280;43451;49.060;10.616;2022-09-09T05:03:06;96472.13;;;12.37;100.00
57628;BME280;43451;49.060;10.616;2022-09-09T05:05:34;96465.06;;;12.43;100.00
57628;BME280;43451;49.060;10.616;2022-09-09T05:08:07;96471.94;;;12.51;100.00
57628;BME280;43451;49.060;10.616;2022-09-09T05:10:37;96468.00;;;12.56;100.00
57628;BME280;43451;49.060;10.616;2022-09-09T05:13:03;96469.47;;;12.61;100.00
57628;BME280;43451;49.060;10.616;2022-09-09T05:15:30;96470.19;;;12.65;100.00
57628;BME280;43451;49.060;10.616;2022-09-09T05:18:00;96474.81;;;12.68;100.00
57628;BME280;43451;49.060;10.616;2022-09-09T05:20:27;96467.38;;;12.72;100.00
57628;BME280;43451;49.060;10.616;2022-09-09T05:22:53;96478.63;;;12.74;100.00
57628;BME280;43451;49.060;10.616;2022-09-09T05:25:20;96481.31;;;12.77;100.00
57628;BME280;43451;49.060;10.616;2022-09-09T05:27:45;96479.31;;;12.82;100.00
57628;BME280;43451;49.060;10.616;2022-09-09T05:30:11;96486.25;;;12.86;100.00
57628;BME280;43451;49.060;10.616;2022-09-09T05:32:36;96476.41;;;12.92;100.00
57628;BME280;43451;49.060;10.616;2022-09-09T05:35:02;96477.94;;;12.93;100.00
57628;BME280;43451;49.060;10.616;2022-09-09T05:37:28;96480.22;;;12.98;100.00
57628;BME280;43451;49.060;10.616;2022-09-09T05:39:55;96476.00;;;12.94;100.00
57628;BME280;43451;49.060;10.616;2022-09-09T05:42:20;96474.47;;;12.93;100.00
57628;BME280;43451;49.060;10.616;2022-09-09T05:44:46;96485.31;;;12.96;100.00
57628;BME280;43451;49.060;10.616;2022-09-09T05:47:11;96479.03;;;12.99;100.00
57628;BME280;43451;49.060;10.616;2022-09-09T05:49:37;96487.94;;;13.04;100.00
57628;BME280;43451;49.060;10.616;2022-09-09T05:52:02;96482.38;;;13.11;100.00
57628;BME280;43451;49.060;10.616;2022-09-09T05:54:29;96476.44;;;13.16;100.00
57628;BME280;43451;49.060;10.616;2022-09-09T05:56:55;96475.22;;;13.20;100.00
57628;BME280;43451;49.060;10.616;2022-09-09T05:59:20;96475.53;;;13.26;100.00
57628;BME280;43451;49.060;10.616;2022-09-09T06:01:48;96472.31;;;13.31;100.00
57628;BME280;43451;49.060;10.616;2022-09-09T06:04:13;96473.00;;;13.39;100.00
57628;BME280;43451;49.060;10.616;2022-09-09T06:06:39;96478.69;;;13.48;100.00
57628;BME280;43451;49.060;10.616;2022-09-09T06:09:06;96468.03;;;13.54;100.00
57628;BME280;43451;49.060;10.616;2022-09-09T06:11:36;96474.16;;;13.61;100.00
57628;BME280;43451;49.060;10.616;2022-09-09T06:14:02;96467.59;;;13.79;100.00
57628;BME280;43451;49.060;10.616;2022-09-09T06:16:29;96468.34;;;13.79;100.00
57628;BME280;43451;49.060;10.616;2022-09-09T06:18:56;96462.00;;;13.86;100.00
57628;BME280;43451;49.060;10.616;2022-09-09T06:21:24;96459.75;;;13.81;100.00
57628;BME280;43451;49.060;10.616;2022-09-09T06:23:50;96463.25;;;13.81;100.00
57628;BME280;43451;49.060;10.616;2022-09-09T06:26:23;96475.16;;;13.91;100.00
57628;BME280;43451;49.060;10.616;2022-09-09T06:28:51;96482.06;;;13.99;100.00
57628;BME280;43451;49.060;10.616;2022-09-09T06:31:20;96469.69;;;14.11;100.00
57628;BME280;43451;49.060;10.616;2022-09-09T06:33:47;96474.91;;;14.25;100.00
57628;BME280;43451;49.060;10.616;2022-09-09T06:36:23;96471.81;;;14.43;100.00
57628;BME280;43451;49.060;10.616;2022-09-09T06:38:49;96482.59;;;14.50;100.00
57628;BME280;43451;49.060;10.616;2022-09-09T06:41:17;96468.03;;;14.57;100.00
57628;BME280;43451;49.060;10.616;2022-09-09T06:43:43;96479.63;;;14.61;100.00
57628;BME280;43451;49.060;10.616;2022-09-09T06:48:42;96477.91;;;14.51;100.00
57628;BME280;43451;49.060;10.616;2022-09-09T06:53:37;96473.25;;;14.48;100.00
57628;BME280;43451;49.060;10.616;2022-09-09T06:56:27;96478.03;;;14.44;100.00
57628;BME280;43451;49.060;10.616;2022-09-09T06:58:55;96483.06;;;14.65;100.00
57628;BME280;43451;49.060;10.616;2022-09-09T07:01:26;96476.59;;;14.75;99.56
57628;BME280;43451;49.060;10.616;2022-09-09T07:03:54;96484.16;;;14.88;97.73
57628;BME280;43451;49.060;10.616;2022-09-09T07:06:23;96489.06;;;14.76;100.00
57628;BME280;43451;49.060;10.616;2022-09-09T07:08:53;96485.50;;;14.96;99.27
57628;BME280;43451;49.060;10.616;2022-09-09T07:11:20;96479.19;;;14.99;100.00
57628;BME280;43451;49.060;10.616;2022-09-09T07:13:46;96486.06;;;15.07;100.00
57628;BME280;43451;49.060;10.616;2022-09-09T07:16:17;96485.09;;;15.14;99.74
57628;BME280;43451;49.060;10.616;2022-09-09T07:18:43;96484.06;;;15.24;97.04
57628;BME280;43451;49.060;10.616;2022-09-09T07:21:11;96481.88;;;15.35;96.30
57628;BME280;43451;49.060;10.616;2022-09-09T07:23:40;96481.69;;;15.42;95.36
57628;BME280;43451;49.060;10.616;2022-09-09T07:26:14;96488.09;;;15.52;95.76
57628;BME280;43451;49.060;10.616;2022-09-09T07:28:41;96492.81;;;15.51;99.01
57628;BME280;43451;49.060;10.616;2022-09-09T07:31:08;96499.41;;;15.70;96.87
57628;BME280;43451;49.060;10.616;2022-09-09T07:33:39;96496.63;;;15.87;98.43
57628;BME280;43451;49.060;10.616;2022-09-09T07:36:07;96496.28;;;15.85;94.05
57628;BME280;43451;49.060;10.616;2022-09-09T07:38:38;96496.91;;;16.05;93.01
57628;BME280;43451;49.060;10.616;2022-09-09T07:41:05;96494.31;;;16.14;92.26
57628;BME280;43451;49.060;10.616;2022-09-09T07:43:32;96496.28;;;16.14;93.64
57628;BME280;43451;49.060;10.616;2022-09-09T07:45:58;96500.25;;;16.25;94.37
57628;BME280;43451;49.060;10.616;2022-09-09T07:48:24;96497.56;;;16.38;92.24
57628;BME280;43451;49.060;10.616;2022-09-09T07:50:49;96500.88;;;16.46;91.18
57628;BME280;43451;49.060;10.616;2022-09-09T07:53:16;96497.06;;;16.69;90.88
57628;BME280;43451;49.060;10.616;2022-09-09T07:55:41;96497.88;;;16.82;89.56
57628;BME280;43451;49.060;10.616;2022-09-09T07:58:07;96490.75;;;16.85;90.55
57628;BME280;43451;49.060;10.616;2022-09-09T08:00:32;96503.25;;;16.86;91.23
57628;BME280;43451;49.060;10.616;2022-09-09T08:02:58;96498.34;;;17.06;88.84
57628;BME280;43451;49.060;10.616;2022-09-09T08:05:26;96495.34;;;17.13;89.32
57628;BME280;43451;49.060;10.616;2022-09-09T08:07:51;96495.88;;;17.34;87.90
57628;BME280;43451;49.060;10.616;2022-09-09T08:10:16;96502.47;;;17.36;88.69
57628;BME280;43451;49.060;10.616;2022-09-09T08:12:43;96503.22;;;17.37;90.42
57628;BME280;43451;49.060;10.616;2022-09-09T08:15:08;96508.06;;;17.33;91.38
57628;BME280;43451;49.060;10.616;2022-09-09T08:17:34;96511.13;;;17.60;86.31
57628;BME280;43451;49.060;10.616;2022-09-09T08:20:00;96509.53;;;17.85;86.23
57628;BME280;43451;49.060;10.616;2022-09-09T08:22:30;96515.09;;;17.94;88.05
57628;BME280;43451;49.060;10.616;2022-09-09T08:24:55;96509.03;;;17.99;84.21
57628;BME280;43451;49.060;10.616;2022-09-09T08:27:21;96508.53;;;18.14;83.74
57628;BME280;43451;49.060;10.616;2022-09-09T08:29:47;96509.19;;;18.18;81.90
57628;BME280;43451;49.060;10.616;2022-09-09T08:32:13;96509.69;;;18.03;84.54
57628;BME280;43451;49.060;10.616;2022-09-09T08:34:39;96513.28;;;18.13;85.06
57628;BME280;43451;49.060;10.616;2022-09-09T08:37:05;96509.97;;;18.18;84.88
57628;BME280;43451;49.060;10.616;2022-09-09T08:39:30;96516.09;;;18.22;81.75
57628;BME280;43451;49.060;10.616;2022-09-09T08:50:33;96501.22;;;18.64;80.76
57628;BME280;43451;49.060;10.616;2022-09-09T08:55:52;96488.16;;;18.77;80.22
57628;BME280;43451;49.060;10.616;2022-09-09T08:58:28;96486.59;;;18.98;79.34
57628;BME280;43451;49.060;10.616;2022-09-09T09:04:02;96498.31;;;18.89;80.15
57628;BME280;43451;49.060;10.616;2022-09-09T09:11:39;96490.50;;;19.28;77.82
57628;BME280;43451;49.060;10.616;2022-09-09T09:19:04;96494.88;;;19.57;70.79
57628;BME280;43451;49.060;10.616;2022-09-09T09:21:44;96489.63;;;19.40;78.94
57628;BME280;43451;49.060;10.616;2022-09-09T09:24:22;96484.84;;;19.22;74.36
57628;BME280;43451;49.060;10.616;2022-09-09T09:26:48;96481.59;;;19.15;75.17
57628;BME280;43451;49.060;10.616;2022-09-09T09:29:18;96486.50;;;19.11;80.90
57628;BME280;43451;49.060;10.616;2022-09-09T09:31:56;96482.84;;;19.14;74.63
57628;BME280;43451;49.060;10.616;2022-09-09T09:34:23;96480.72;;;19.27;76.83
57628;BME280;43451;49.060;10.616;2022-09-09T09:36:57;96486.59;;;19.47;72.79
57628;BME280;43451;49.060;10.616;2022-09-09T09:39:26;96487.97;;;19.43;74.01
57628;BME280;43451;49.060;10.616;2022-09-09T09:41:52;96493.09;;;19.13;78.97
57628;BME280;43451;49.060;10.616;2022-09-09T09:44:30;96493.13;;;19.22;79.68
57628;BME280;43451;49.060;10.616;2022-09-09T09:49:31;96490.13;;;19.57;74.30
57628;BME280;43451;49.060;10.616;2022-09-09T09:52:02;96482.63;;;19.58;75.47
57628;BME280;43451;49.060;10.616;2022-09-09T09:54:33;96493.63;;;19.39;77.04
57628;BME280;43451;49.060;10.616;2022-09-09T09:57:31;96491.72;;;19.18;77.25
57628;BME280;43451;49.060;10.616;2022-09-09T10:00:21;96488.66;;;19.25;77.33
57628;BME280;43451;49.060;10.616;2022-09-09T10:02:47;96485.97;;;19.53;72.96
57628;BME280;43451;49.060;10.616;2022-09-09T10:05:22;96486.19;;;19.67;73.98
57628;BME280;43451;49.060;10.616;2022-09-09T10:19:14;96473.34;;;19.92;69.17
57628;BME280;43451;49.060;10.616;2022-09-09T10:27:45;96474.69;;;20.43;69.80
57628;BME280;43451;49.060;10.616;2022-09-09T10:32:48;96464.81;;;20.78;69.84
57628;BME280;43451;49.060;10.616;2022-09-09T10:35:23;96456.94;;;20.86;71.69
57628;BME280;43451;49.060;10.616;2022-09-09T10:38:18;96454.19;;;21.19;70.28
57628;BME280;43451;49.060;10.616;2022-09-09T10:56:31;96437.38;;;21.41;65.70
57628;BME280;43451;49.060;10.616;2022-09-09T10:59:17;96451.28;;;21.47;60.97
57628;BME280;43451;49.060;10.616;2022-09-09T11:01:51;96449.50;;;21.35;60.56
57628;BME280;43451;49.060;10.616;2022-09-09T11:04:32;96443.72;;;21.23;62.70
57628;BME280;43451;49.060;10.616;2022-09-09T11:07:02;96449.50;;;21.35;63.72
57628;BME280;43451;49.060;10.616;2022-09-09T11:09:57;96453.09;;;21.50;65.53
57628;BME280;43451;49.060;10.616;2022-09-09T11:12:23;96447.00;;;21.46;67.42
57628;BME280;43451;49.060;10.616;2022-09-09T11:15:26;96446.44;;;21.56;59.34
57628;BME280;43451;49.060;10.616;2022-09-09T11:17:56;96447.25;;;21.57;59.03
57628;BME280;43451;49.060;10.616;2022-09-09T11:20:25;96440.31;;;21.28;67.45
57628;BME280;43451;49.060;10.616;2022-09-09T11:23:10;96453.44;;;21.19;67.99
57628;BME280;43451;49.060;10.616;2022-09-09T11:25:45;96451.81;;;21.03;71.79
57628;BME280;43451;49.060;10.616;2022-09-09T11:31:37;96442.00;;;21.35;62.53
57628;BME280;43451;49.060;10.616;2022-09-09T11:37:21;96448.13;;;21.63;67.15
57628;BME280;43451;49.060;10.616;2022-09-09T11:42:26;96452.09;;;21.86;54.62
57628;BME280;43451;49.060;10.616;2022-09-09T11:44:52;96438.78;;;21.75;64.89
57628;BME280;43451;49.060;10.616;2022-09-09T11:47:25;96442.84;;;21.89;60.92
57628;BME280;43451;49.060;10.616;2022-09-09T11:50:40;96433.44;;;21.72;64.37
57628;BME280;43451;49.060;10.616;2022-09-09T11:52:43;96431.75;;;21.74;61.32
57628;BME280;43451;49.060;10.616;2022-09-09T11:55:34;96437.94;;;21.45;64.58
57628;BME280;43451;49.060;10.616;2022-09-09T11:58:06;96438.16;;;21.32;66.56
57628;BME280;43451;49.060;10.616;2022-09-09T12:00:45;96435.38;;;21.32;63.51
57628;BME280;43451;49.060;10.616;2022-09-09T12:03:38;96423.91;;;21.25;71.14
57628;BME280;43451;49.060;10.616;2022-09-09T12:06:20;96419.88;;;21.59;70.78
57628;BME280;43451;49.060;10.616;2022-09-09T12:08:57;96423.59;;;21.95;64.55
57628;BME280;43451;49.060;10.616;2022-09-09T12:11:28;96416.34;;;22.12;61.41
57628;BME280;43451;49.060;10.616;2022-09-09T12:13:58;96419.06;;;22.21;55.19
57628;BME280;43451;49.060;10.616;2022-09-09T12:16:36;96420.13;;;22.24;53.13
57628;BME280;43451;49.060;10.616;2022-09-09T12:19:21;96418.31;;;22.21;54.33
57628;BME280;43451;49.060;10.616;2022-09-09T12:33:36;96403.94;;;22.82;54.46
57628;BME280;43451;49.060;10.616;2022-09-09T12:36:03;96397.28;;;22.44;57.58
57628;BME280;43451;49.060;10.616;2022-09-09T12:38:36;96403.22;;;22.22;52.87
57628;BME280;43451;49.060;10.616;2022-09-09T12:41:02;96402.56;;;21.88;58.10
57628;BME280;43451;49.060;10.616;2022-09-09T12:43:28;96407.34;;;21.88;58.60
57628;BME280;43451;49.060;10.616;2022-09-09T12:45:57;96410.03;;;21.97;51.68
57628;BME280;43451;49.060;10.616;2022-09-09T12:48:37;96407.16;;;21.76;56.55
57628;BME280;43451;49.060;10.616;2022-09-09T12:51:07;96408.81;;;21.59;54.20
57628;BME280;43451;49.060;10.616;2022-09-09T12:53:41;96402.69;;;21.55;55.55
57628;BME280;43451;49.060;10.616;2022-09-09T12:58:36;96400.09;;;21.27;52.43
57628;BME280;43451;49.060;10.616;2022-09-09T13:01:04;96399.88;;;21.16;52.20
57628;BME280;43451;49.060;10.616;2022-09-09T13:03:31;96403.31;;;21.02;57.09
57628;BME280;43451;49.060;10.616;2022-09-09T13:05:59;96397.66;;;20.96;55.91
57628;BME280;43451;49.060;10.616;2022-09-09T13:08:35;96401.50;;;20.99;57.42
57628;BME280;43451;49.060;10.616;2022-09-09T13:11:03;96386.69;;;21.11;52.39
57628;BME280;43451;49.060;10.616;2022-09-09T13:13:41;96393.31;;;21.38;51.31
57628;BME280;43451;49.060;10.616;2022-09-09T13:16:23;96386.38;;;21.96;47.70
57628;BME280;43451;49.060;10.616;2022-09-09T13:18:50;96383.16;;;22.12;45.97
57628;BME280;43451;49.060;10.616;2022-09-09T13:21:17;96388.72;;;22.27;47.77
57628;BME280;43451;49.060;10.616;2022-09-09T13:23:49;96382.03;;;22.34;48.42
57628;BME280;43451;49.060;10.616;2022-09-09T13:26:23;96372.84;;;22.57;46.83
57628;BME280;43451;49.060;10.616;2022-09-09T13:28:50;96374.94;;;22.62;51.39
57628;BME280;43451;49.060;10.616;2022-09-09T13:31:33;96374.25;;;22.67;48.48
57628;BME280;43451;49.060;10.616;2022-09-09T13:34:13;96365.88;;;22.62;44.73
57628;BME280;43451;49.060;10.616;2022-09-09T13:36:40;96371.25;;;22.86;42.68
57628;BME280;43451;49.060;10.616;2022-09-09T13:39:15;96399.16;;;22.67;47.98
57628;BME280;43451;49.060;10.616;2022-09-09T13:41:44;96393.47;;;22.56;50.83
57628;BME280;43451;49.060;10.616;2022-09-09T13:44:31;96405.50;;;22.53;51.96
57628;BME280;43451;49.060;10.616;2022-09-09T13:47:20;96433.84;;;22.48;51.37
57628;BME280;43451;49.060;10.616;2022-09-09T13:49:46;96408.28;;;22.38;50.82
57628;BME280;43451;49.060;10.616;2022-09-09T13:52:14;96434.66;;;22.10;50.61
57628;BME280;43451;49.060;10.616;2022-09-09T13:54:41;96426.13;;;21.45;51.40
57628;BME280;43451;49.060;10.616;2022-09-09T13:57:21;96424.69;;;21.25;55.58
57628;BME280;43451;49.060;10.616;2022-09-09T13:59:47;96415.97;;;21.18;54.08
57628;BME280;43451;49.060;10.616;2022-09-09T14:02:14;96404.78;;;21.12;56.00
57628;BME280;43451;49.060;10.616;2022-09-09T14:04:41;96407.69;;;21.18;51.98
57628;BME280;43451;49.060;10.616;2022-09-09T14:07:11;96409.81;;;20.90;52.74
57628;BME280;43451;49.060;10.616;2022-09-09T14:09:37;96400.81;;;20.80;53.89
57628;BME280;43451;49.060;10.616;2022-09-09T14:12:03;96398.19;;;20.85;54.94
57628;BME280;43451;49.060;10.616;2022-09-09T14:14:29;96392.44;;;20.74;55.48
57628;BME280;43451;49.060;10.616;2022-09-09T14:16:55;96399.47;;;20.75;55.59
57628;BME280;43451;49.060;10.616;2022-09-09T14:19:20;96396.72;;;20.75;57.58
57628;BME280;43451;49.060;10.616;2022-09-09T14:21:46;96382.56;;;20.82;60.61
57628;BME280;43451;49.060;10.616;2022-09-09T14:24:11;96387.53;;;21.26;55.41
57628;BME280;43451;49.060;10.616;2022-09-09T14:26:37;96386.34;;;21.18;55.21
57628;BME280;43451;49.060;10.616;2022-09-09T14:29:03;96376.47;;;21.26;58.32
57628;BME280;43451;49.060;10.616;2022-09-09T14:31:28;96371.97;;;21.38;56.31
57628;BME280;43451;49.060;10.616;2022-09-09T14:33:54;96380.06;;;21.42;53.06
57628;BME280;43451;49.060;10.616;2022-09-09T14:36:20;96373.81;;;21.32;52.77
57628;BME280;43451;49.060;10.616;2022-09-09T14:38:45;96374.72;;;21.38;54.11
57628;BME280;43451;49.060;10.616;2022-09-09T14:41:16;96376.56;;;21.41;50.39
57628;BME280;43451;49.060;10.616;2022-09-09T14:43:43;96375.19;;;21.37;52.09
57628;BME280;43451;49.060;10.616;2022-09-09T14:46:11;96376.28;;;21.30;49.08
57628;BME280;43451;49.060;10.616;2022-09-09T14:48:37;96376.28;;;21.30;51.46
57628;BME280;43451;49.060;10.616;2022-09-09T14:51:06;96380.75;;;21.27;53.97
57628;BME280;43451;49.060;10.616;2022-09-09T14:53:32;96375.50;;;21.39;50.58
57628;BME280;43451;49.060;10.616;2022-09-09T14:56:05;96372.25;;;21.40;50.20
57628;BME280;43451;49.060;10.616;2022-09-09T14:58:31;96388.09;;;21.30;50.24
57628;BME280;43451;49.060;10.616;2022-09-09T15:01:03;96386.63;;;21.20;50.49
57628;BME280;43451;49.060;10.616;2022-09-09T15:03:29;96389.69;;;21.22;49.27